Time;durP1;ratioP1;P1;durP2;ratioP2;P2;SDS_P1;SDS_P2;PMS_P1;PMS_P2;Temp;Humidity;BMP_temperature;BMP_pressure;BME280_temperature;BME280_humidity;BME280_pressure;Samples;Min_cycle;Max_cycle;Signal;HPM_P1;HPM_P2
2022/03/07 00:01:58;;;;;;;56.93;25.27;;;-0.70;99.90;;;;;;4903714;29;20226;-52
2022/03/07 00:04:24;;;;;;;45.73;25.17;;;-0.70;99.90;;;;;;4898308;29;20540;-52
2022/03/07 00:06:50;;;;;;;47.20;23.40;;;-0.70;1.00;;;;;;4882069;29;20448;-52
2022/03/07 00:09:16;;;;;;;46.17;24.90;;;-0.70;1.00;;;;;;4905803;29;20471;-53
2022/03/07 00:11:43;;;;;;;48.80;24.33;;;-0.80;99.90;;;;;;4897496;29;20685;-54
2022/03/07 00:14:09;;;;;;;43.80;23.83;;;-0.80;99.90;;;;;;4897568;29;20533;-53
2022/03/07 00:16:35;;;;;;;49.47;26.20;;;-0.90;99.90;;;;;;4894445;29;21024;-52
2022/03/07 00:19:00;;;;;;;50.07;25.20;;;-0.90;99.90;;;;;;4893866;29;20230;-52
2022/03/07 00:21:26;;;;;;;54.33;26.30;;;-0.90;1.00;;;;;;4893288;29;20183;-52
2022/03/07 00:23:52;;;;;;;46.10;24.83;;;-0.80;1.00;;;;;;4894147;29;20191;-52
2022/03/07 00:26:18;;;;;;;56.20;27.60;;;-0.90;1.00;;;;;;4893507;29;20544;-53
2022/03/07 00:28:44;;;;;;;49.50;26.03;;;-0.90;1.00;;;;;;4896474;29;20239;-53
2022/03/07 00:31:10;;;;;;;46.70;24.07;;;-0.90;1.00;;;;;;4893517;29;20522;-52
2022/03/07 00:33:36;;;;;;;51.73;26.17;;;-0.90;1.00;;;;;;4894391;29;20588;-52
2022/03/07 00:36:03;;;;;;;52.13;25.53;;;-0.90;1.00;;;;;;4893496;29;21286;-52
2022/03/07 00:38:29;;;;;;;44.80;23.77;;;-0.90;1.00;;;;;;4893414;29;20211;-55
2022/03/07 00:40:54;;;;;;;51.87;25.90;;;-1.00;1.00;;;;;;4893918;29;20448;-52
2022/03/07 00:43:21;;;;;;;48.97;25.20;;;-1.00;1.00;;;;;;4893792;29;20191;-53
2022/03/07 00:45:48;;;;;;;53.37;26.00;;;-1.00;1.00;;;;;;4893925;29;20223;-53
2022/03/07 00:48:14;;;;;;;50.20;26.13;;;-1.00;1.00;;;;;;4888365;29;20475;-52
2022/03/07 00:50:42;;;;;;;47.37;23.53;;;-1.10;1.00;;;;;;4895730;29;20968;-50
2022/03/07 00:53:09;;;;;;;43.60;24.23;;;-1.10;1.00;;;;;;4896871;29;20440;-51
2022/03/07 00:55:35;;;;;;;48.20;25.60;;;-1.10;1.00;;;;;;4898260;29;20531;-50
2022/03/07 00:58:01;;;;;;;48.10;24.80;;;-1.20;1.00;;;;;;4895773;29;20508;-51
2022/03/07 01:00:26;;;;;;;50.60;26.63;;;-1.20;1.00;;;;;;4896267;29;20938;-51
2022/03/07 01:02:52;;;;;;;55.13;26.90;;;-1.20;1.00;;;;;;4896076;29;20192;-50
2022/03/07 01:05:19;;;;;;;52.40;25.40;;;-1.20;1.00;;;;;;4895281;29;20192;-51
2022/03/07 01:07:45;;;;;;;55.57;26.87;;;-1.20;1.00;;;;;;4896278;29;20243;-50
2022/03/07 01:10:10;;;;;;;59.73;28.50;;;-1.20;1.00;;;;;;4895416;29;20439;-50
2022/03/07 01:12:36;;;;;;;54.03;27.30;;;-1.20;2.60;;;;;;4894190;29;20451;-50
2022/03/07 01:15:03;;;;;;;52.27;27.83;;;-1.20;33.80;;;;;;4895759;29;20196;-50
2022/03/07 01:17:28;;;;;;;51.80;25.97;;;-1.20;62.90;;;;;;4894520;29;20198;-51
2022/03/07 01:19:54;;;;;;;60.97;26.97;;;-1.20;86.70;;;;;;4895037;29;20440;-50
2022/03/07 01:22:20;;;;;;;50.80;25.10;;;-1.20;86.60;;;;;;4897663;29;20275;-50
2022/03/07 01:24:45;;;;;;;54.73;26.80;;;-1.30;72.70;;;;;;4894946;29;20200;-50
2022/03/07 01:27:11;;;;;;;51.57;24.00;;;-1.30;47.70;;;;;;4878368;29;20251;-50
2022/03/07 01:29:36;;;;;;;51.67;25.90;;;-1.40;20.90;;;;;;4895535;29;20206;-52
2022/03/07 01:32:02;;;;;;;55.40;25.67;;;-1.40;1.00;;;;;;4895502;29;20318;-50
2022/03/07 01:34:27;;;;;;;49.53;26.87;;;-1.50;1.00;;;;;;4894981;29;20201;-50
2022/03/07 01:36:53;;;;;;;47.90;25.27;;;-1.50;1.00;;;;;;4895695;29;20199;-50
2022/03/07 01:39:18;;;;;;;50.47;24.53;;;-1.50;1.00;;;;;;4895336;29;20228;-50
2022/03/07 01:41:44;;;;;;;49.00;24.20;;;-1.50;1.00;;;;;;4894454;29;20184;-51
2022/03/07 01:44:21;;;;;;;49.57;25.57;;;-1.50;1.00;;;;;;4851292;29;1266210;-50
2022/03/07 01:46:48;;;;;;;56.63;26.83;;;-1.50;2.70;;;;;;4896464;29;20445;-51
2022/03/07 01:49:14;;;;;;;57.07;26.43;;;-1.50;20.50;;;;;;4896275;29;20463;-50
2022/03/07 01:51:44;;;;;;;46.37;25.63;;;-1.50;33.30;;;;;;4896619;29;20444;-50
2022/03/07 01:54:15;;;;;;;51.10;26.53;;;-1.50;43.70;;;;;;4897408;29;20452;-50
2022/03/07 01:56:42;;;;;;;48.90;26.40;;;-1.50;53.40;;;;;;4894349;29;20514;-50
2022/03/07 01:59:12;;;;;;;51.63;26.53;;;-1.60;62.00;;;;;;4895101;29;20472;-50
2022/03/07 02:01:38;;;;;;;55.53;26.43;;;-1.60;74.10;;;;;;4896406;29;20440;-50
2022/03/07 02:04:04;;;;;;;48.97;25.13;;;-1.60;84.00;;;;;;4894302;29;20539;-50
2022/03/07 02:06:30;;;;;;;44.73;25.60;;;-1.60;90.30;;;;;;4896138;29;20474;-50
2022/03/07 02:08:57;;;;;;;57.73;26.90;;;-1.60;93.50;;;;;;4896006;29;20437;-51
2022/03/07 02:11:24;;;;;;;52.07;26.90;;;-1.60;99.90;;;;;;4895382;29;20440;-50
2022/03/07 02:13:49;;;;;;;49.50;24.77;;;-1.60;99.90;;;;;;4895550;29;20844;-49
2022/03/07 02:16:17;;;;;;;50.70;25.10;;;-1.60;99.90;;;;;;4895301;29;20511;-51
2022/03/07 02:18:42;;;;;;;54.33;25.87;;;-1.60;99.90;;;;;;4896265;29;20360;-50
2022/03/07 02:21:18;;;;;;;52.53;26.43;;;-1.70;99.90;;;;;;4895326;29;20519;-50
2022/03/07 02:23:45;;;;;;;48.50;24.00;;;-1.70;99.90;;;;;;4892298;29;20194;-50
2022/03/07 02:26:16;;;;;;;58.07;26.03;;;-1.70;99.90;;;;;;4895173;29;20432;-50
2022/03/07 02:28:43;;;;;;;54.10;25.20;;;-1.60;99.90;;;;;;4896019;29;20946;-50
2022/03/07 02:31:10;;;;;;;47.70;26.00;;;-1.70;99.90;;;;;;4895124;29;20444;-50
2022/03/07 02:33:36;;;;;;;45.17;23.50;;;-1.70;99.90;;;;;;4878440;29;20500;-50
2022/03/07 02:36:03;;;;;;;50.83;25.50;;;-1.70;99.90;;;;;;4895139;29;20448;-50
2022/03/07 02:38:28;;;;;;;58.23;26.03;;;-1.70;99.90;;;;;;4894360;29;20690;-50
2022/03/07 02:40:54;;;;;;;47.97;26.30;;;-1.70;99.90;;;;;;4894512;29;20467;-50
2022/03/07 02:43:20;;;;;;;45.10;24.50;;;-1.80;99.90;;;;;;4894810;29;20200;-51
2022/03/07 02:45:46;;;;;;;53.50;26.33;;;-1.80;99.90;;;;;;4893680;29;20562;-50
2022/03/07 02:48:12;;;;;;;56.70;27.07;;;-1.80;99.90;;;;;;4894813;29;20976;-50
2022/03/07 02:50:38;;;;;;;50.93;26.00;;;-1.80;99.90;;;;;;4895705;29;20455;-60
2022/03/07 02:53:03;;;;;;;52.13;25.90;;;-1.80;99.90;;;;;;4894643;29;20583;-50
2022/03/07 02:55:30;;;;;;;51.43;26.40;;;-1.70;99.90;;;;;;4895334;29;20195;-50
2022/03/07 02:57:56;;;;;;;51.83;26.60;;;-1.70;99.90;;;;;;4890166;29;20208;-50
2022/03/07 03:00:21;;;;;;;49.10;27.00;;;-1.70;99.90;;;;;;4895293;29;20890;-50
2022/03/07 03:02:47;;;;;;;53.20;26.33;;;-1.80;99.90;;;;;;4895664;29;20911;-50
2022/03/07 03:05:12;;;;;;;54.77;25.43;;;-1.70;99.90;;;;;;4894399;29;20275;-50
2022/03/07 03:07:38;;;;;;;56.83;26.63;;;-1.70;99.90;;;;;;4894956;29;20180;-54
2022/03/07 03:10:05;;;;;;;49.67;23.97;;;-1.70;99.90;;;;;;4895221;29;20243;-50
2022/03/07 03:12:32;;;;;;;54.40;26.30;;;-1.70;99.90;;;;;;4895812;29;20191;-49
2022/03/07 03:14:57;;;;;;;58.47;26.40;;;-1.70;99.90;;;;;;4894547;29;20432;-50
2022/03/07 03:17:24;;;;;;;46.73;25.40;;;-1.80;99.90;;;;;;4894296;29;21287;-50
2022/03/07 03:19:50;;;;;;;48.80;23.90;;;-1.80;99.90;;;;;;4893785;29;20602;-49
2022/03/07 03:22:19;;;;;;;46.17;23.60;;;-1.80;99.90;;;;;;4894594;29;20523;-50
2022/03/07 03:24:45;;;;;;;52.07;26.27;;;-1.80;99.90;;;;;;4894810;29;20649;-50
2022/03/07 03:27:11;;;;;;;43.77;23.30;;;-1.80;99.90;;;;;;4894670;29;20781;-50
2022/03/07 03:29:36;;;;;;;40.67;23.40;;;-1.80;99.90;;;;;;4894497;29;20440;-58
2022/03/07 03:32:02;;;;;;;46.40;23.10;;;-1.90;99.90;;;;;;4892893;29;20234;-51
2022/03/07 03:34:28;;;;;;;50.37;25.13;;;-1.90;99.90;;;;;;4894915;29;20191;-50
2022/03/07 03:36:53;;;;;;;46.53;24.73;;;-2.00;99.90;;;;;;4894475;29;20243;-50
2022/03/07 03:39:19;;;;;;;49.07;24.17;;;-2.10;99.90;;;;;;4894172;29;20657;-50
2022/03/07 03:41:45;;;;;;;48.93;23.90;;;-2.10;99.90;;;;;;4894784;29;20218;-50
2022/03/07 03:44:10;;;;;;;53.20;22.90;;;-2.10;99.90;;;;;;4893491;29;20241;-50
2022/03/07 03:46:37;;;;;;;45.37;24.60;;;-2.10;99.90;;;;;;4894122;29;20196;-50
2022/03/07 03:49:03;;;;;;;50.47;24.97;;;-2.10;99.90;;;;;;4894145;29;20266;-50
2022/03/07 03:51:29;;;;;;;44.93;22.87;;;-2.20;99.90;;;;;;4894111;29;20435;-50
2022/03/07 03:53:55;;;;;;;49.47;24.13;;;-2.20;99.90;;;;;;4895049;29;20802;-50
2022/03/07 03:56:20;;;;;;;48.03;23.77;;;-2.20;99.90;;;;;;4893771;29;20439;-50
2022/03/07 03:58:46;;;;;;;42.37;22.97;;;-2.20;99.90;;;;;;4893680;29;20344;-49
2022/03/07 04:01:11;;;;;;;42.47;22.23;;;-2.30;99.90;;;;;;4894260;29;20543;-50
2022/03/07 04:03:37;;;;;;;43.53;22.00;;;-2.30;99.90;;;;;;4893907;29;20195;-50
2022/03/07 04:06:04;;;;;;;44.27;23.27;;;-2.30;99.90;;;;;;4893715;29;20194;-49
2022/03/07 04:08:31;;;;;;;52.20;25.07;;;-2.30;99.90;;;;;;4893931;29;20909;-50
2022/03/07 04:10:56;;;;;;;48.43;23.00;;;-2.30;99.90;;;;;;4894140;29;20436;-50
2022/03/07 04:13:21;;;;;;;46.80;24.20;;;-2.30;99.90;;;;;;4893964;29;20926;-50
2022/03/07 04:15:48;;;;;;;45.10;23.03;;;-2.40;99.90;;;;;;4892727;29;20211;-50
2022/03/07 04:18:14;;;;;;;41.03;22.73;;;-2.40;99.90;;;;;;4893344;29;21629;-51
2022/03/07 04:20:39;;;;;;;44.17;22.00;;;-2.40;99.90;;;;;;4894009;29;20446;-50
2022/03/07 04:23:05;;;;;;;40.43;21.67;;;-2.40;99.90;;;;;;4898442;29;20239;-50
2022/03/07 04:25:33;;;;;;;45.33;23.43;;;-2.40;99.90;;;;;;4899614;29;20183;-50
2022/03/07 04:27:59;;;;;;;46.63;24.20;;;-2.40;99.90;;;;;;4900098;29;20187;-50
2022/03/07 04:30:25;;;;;;;42.00;21.77;;;-2.40;99.90;;;;;;4899679;29;20765;-50
2022/03/07 04:32:50;;;;;;;55.80;25.47;;;-2.40;99.90;;;;;;4900495;29;20424;-50
2022/03/07 04:35:16;;;;;;;50.60;24.43;;;-2.40;99.90;;;;;;4899531;29;20556;-55
2022/03/07 04:37:41;;;;;;;53.47;26.17;;;-2.40;99.90;;;;;;4900175;29;20619;-50
2022/03/07 04:40:14;;;;;;;48.43;24.63;;;-2.40;99.90;;;;;;4883103;29;20255;-50
2022/03/07 04:42:42;;;;;;;43.77;23.17;;;-2.40;99.90;;;;;;4898896;29;20584;-50
2022/03/07 04:45:08;;;;;;;53.63;23.20;;;-2.40;99.90;;;;;;4894108;29;20619;-50
2022/03/07 04:47:34;;;;;;;45.93;23.60;;;-2.40;99.90;;;;;;4897925;29;20518;-50
2022/03/07 04:50:01;;;;;;;47.40;24.17;;;-2.40;99.90;;;;;;4899325;29;20491;-50
2022/03/07 04:52:26;;;;;;;46.63;24.73;;;-2.40;99.90;;;;;;4900153;29;20183;-51
2022/03/07 04:54:52;;;;;;;49.80;23.50;;;-2.30;99.90;;;;;;4899814;29;21161;-50
2022/03/07 04:57:17;;;;;;;46.07;23.63;;;-2.30;99.90;;;;;;4883055;29;20214;-50
2022/03/07 04:59:45;;;;;;;45.90;22.87;;;-2.30;99.90;;;;;;4899754;29;21022;-60
2022/03/07 05:02:11;;;;;;;47.60;23.50;;;-2.40;99.90;;;;;;4899746;29;20187;-50
2022/03/07 05:04:37;;;;;;;40.07;22.07;;;-2.40;99.90;;;;;;4882885;29;20470;-50
2022/03/07 05:07:03;;;;;;;39.83;21.90;;;-2.40;99.90;;;;;;4899624;29;20431;-50
2022/03/07 05:09:29;;;;;;;46.90;24.27;;;-2.40;99.90;;;;;;4900038;29;20436;-50
2022/03/07 05:11:54;;;;;;;49.43;22.30;;;-2.40;99.90;;;;;;4899401;29;20454;-50
2022/03/07 05:14:20;;;;;;;41.00;21.73;;;-2.40;99.90;;;;;;4899109;29;20184;-50
2022/03/07 05:16:46;;;;;;;43.53;23.57;;;-2.40;99.90;;;;;;4897762;29;20265;-51
2022/03/07 05:19:11;;;;;;;42.17;20.90;;;-2.40;99.90;;;;;;4899854;29;20219;-50
2022/03/07 05:21:37;;;;;;;44.03;22.97;;;-2.40;99.90;;;;;;4899574;29;20192;-49
2022/03/07 05:24:03;;;;;;;46.20;24.20;;;-2.40;99.90;;;;;;4882970;29;20188;-50
2022/03/07 05:26:28;;;;;;;45.37;23.13;;;-2.40;99.90;;;;;;4898572;29;20187;-50
2022/03/07 05:28:54;;;;;;;45.37;23.87;;;-2.40;99.90;;;;;;4899022;29;20288;-50
2022/03/07 05:31:19;;;;;;;48.70;22.77;;;-2.40;99.90;;;;;;4900043;29;20204;-50
2022/03/07 05:33:45;;;;;;;44.47;22.20;;;-2.40;99.90;;;;;;4897360;29;20692;-50
2022/03/07 05:36:10;;;;;;;38.37;21.40;;;-2.50;99.90;;;;;;4896356;29;20318;-50
2022/03/07 05:38:36;;;;;;;46.83;22.87;;;-2.50;99.90;;;;;;4896185;29;20218;-51
2022/03/07 05:41:02;;;;;;;44.50;21.57;;;-2.50;99.90;;;;;;4896916;29;20688;-50
2022/03/07 05:43:27;;;;;;;44.30;21.73;;;-2.50;99.90;;;;;;4896252;29;20207;-50
2022/03/07 05:45:53;;;;;;;40.20;22.37;;;-2.50;99.90;;;;;;4896615;29;20211;-50
2022/03/07 05:48:18;;;;;;;41.70;22.60;;;-2.60;99.90;;;;;;4896034;29;20199;-49
2022/03/07 05:50:45;;;;;;;42.87;22.80;;;-2.60;99.90;;;;;;4896045;29;20210;-51
2022/03/07 05:53:11;;;;;;;44.63;21.73;;;-2.60;99.90;;;;;;4896313;29;20563;-52
2022/03/07 05:55:37;;;;;;;45.10;22.90;;;-2.60;99.90;;;;;;4895534;29;20478;-52
2022/03/07 05:58:02;;;;;;;42.07;21.90;;;-2.60;99.90;;;;;;4895877;29;20230;-52
2022/03/07 06:00:29;;;;;;;43.30;22.53;;;-2.70;99.90;;;;;;4896143;29;20216;-52
2022/03/07 06:02:54;;;;;;;40.87;21.40;;;-2.60;99.90;;;;;;4876436;29;20926;-52
2022/03/07 06:05:21;;;;;;;45.37;23.87;;;-2.60;99.90;;;;;;4895376;29;20432;-52
2022/03/07 06:07:46;;;;;;;45.20;23.90;;;-2.60;99.90;;;;;;4897572;29;20208;-52
2022/03/07 06:10:12;;;;;;;46.70;22.40;;;-2.60;99.90;;;;;;4896199;29;20456;-52
2022/03/07 06:12:37;;;;;;;47.00;22.40;;;-2.60;99.90;;;;;;4895797;29;20642;-52
2022/03/07 06:15:04;;;;;;;44.80;23.73;;;-2.50;99.90;;;;;;4896144;29;20271;-52
2022/03/07 06:17:31;;;;;;;47.60;24.40;;;-2.50;99.90;;;;;;4895762;29;20187;-54
2022/03/07 06:19:57;;;;;;;42.10;22.20;;;-2.50;99.90;;;;;;4895908;29;20456;-52
2022/03/07 06:22:22;;;;;;;49.00;25.50;;;-2.50;99.90;;;;;;4896010;29;20447;-52
2022/03/07 06:24:47;;;;;;;50.73;25.53;;;-2.40;99.90;;;;;;4895181;29;20443;-52
2022/03/07 06:27:13;;;;;;;47.47;25.03;;;-2.40;99.90;;;;;;4895888;29;20215;-52
2022/03/07 06:29:39;;;;;;;51.90;25.53;;;-2.40;99.90;;;;;;4895170;29;20195;-52
2022/03/07 06:32:05;;;;;;;49.43;24.70;;;-2.30;99.90;;;;;;4895611;29;20207;-52
2022/03/07 06:34:33;;;;;;;47.90;25.13;;;-2.30;99.90;;;;;;4891138;29;20219;-50
2022/03/07 06:37:00;;;;;;;49.17;24.73;;;-2.20;99.90;;;;;;4895463;29;20435;-51
2022/03/07 06:39:27;;;;;;;52.83;25.83;;;-2.20;99.90;;;;;;4895383;29;21271;-50
2022/03/07 06:41:55;;;;;;;48.70;24.30;;;-2.10;99.90;;;;;;4895077;29;20467;-51
2022/03/07 06:44:21;;;;;;;48.27;25.00;;;-2.00;99.90;;;;;;4895048;29;20562;-51
2022/03/07 06:46:46;;;;;;;44.47;24.97;;;-1.70;99.90;;;;;;4895056;29;20531;-50
2022/03/07 06:49:12;;;;;;;44.93;24.50;;;-1.40;99.90;;;;;;4895812;29;20214;-50
2022/03/07 06:51:37;;;;;;;49.23;24.93;;;-1.20;99.90;;;;;;4895115;29;20222;-50
2022/03/07 06:54:03;;;;;;;50.03;23.80;;;-1.00;99.90;;;;;;4895314;29;20184;-52
2022/03/07 06:59:43;;;;;;;50.30;23.20;;;-0.70;99.90;;;;;;4892494;29;20499;-53
2022/03/07 07:02:08;;;;;;;45.20;24.60;;;-0.70;99.90;;;;;;4892218;29;20606;-53
2022/03/07 07:04:35;;;;;;;43.33;22.47;;;-0.50;99.90;;;;;;4895341;29;20464;-52
2022/03/07 07:07:00;;;;;;;39.73;21.73;;;-0.30;99.90;;;;;;4894835;29;20189;-52
2022/03/07 07:09:26;;;;;;;43.17;22.43;;;-0.20;99.90;;;;;;4895427;29;20433;-51
2022/03/07 07:11:51;;;;;;;51.13;20.87;;;-0.10;94.60;;;;;;4899385;29;20184;-52
2022/03/07 07:14:17;;;;;;;33.60;19.87;;;0.00;3.30;;;;;;4895094;29;20200;-52
2022/03/07 07:16:42;;;;;;;45.30;20.60;;;0.10;1.00;;;;;;4894779;29;20214;-52
2022/03/07 07:19:08;;;;;;;41.40;20.93;;;0.30;1.00;;;;;;4894765;29;20215;-52
2022/03/07 07:21:34;;;;;;;34.30;19.57;;;0.40;99.90;;;;;;4894305;29;20184;-52
2022/03/07 07:23:59;;;;;;;32.53;16.60;;;0.50;1.00;;;;;;4893242;29;20439;-52
2022/03/07 07:26:26;;;;;;;33.30;18.00;;;0.70;1.00;;;;;;4877539;29;20176;-52
2022/03/07 07:28:52;;;;;;;30.07;17.50;;;1.20;1.00;;;;;;4892094;29;20200;-51
2022/03/07 07:31:17;;;;;;;29.60;17.70;;;1.60;99.90;;;;;;4876612;29;20443;-51
2022/03/07 07:33:44;;;;;;;24.03;15.40;;;1.90;99.90;;;;;;4894200;29;20231;-51
2022/03/07 07:36:09;;;;;;;36.17;16.17;;;2.10;28.80;;;;;;4890913;29;20218;-52
2022/03/07 07:38:35;;;;;;;22.77;15.60;;;2.30;50.00;;;;;;4894190;29;20511;-52
2022/03/07 07:41:00;;;;;;;25.10;16.47;;;2.20;1.00;;;;;;4890935;29;20208;-52
2022/03/07 07:43:26;;;;;;;25.37;15.10;;;2.20;1.00;;;;;;4861211;29;20283;-52
2022/03/07 07:45:51;;;;;;;27.97;17.27;;;2.50;1.00;;;;;;4878309;29;20212;-52
2022/03/07 07:48:17;;;;;;;26.50;16.27;;;3.00;1.00;;;;;;4894527;29;20192;-52
2022/03/07 07:50:42;;;;;;;27.63;16.00;;;3.90;99.90;;;;;;4893299;29;20701;-52
2022/03/07 07:53:08;;;;;;;25.90;14.80;;;4.80;99.90;;;;;;4893877;29;20247;-51
2022/03/07 07:55:34;;;;;;;23.47;14.27;;;5.50;1.00;;;;;;4893870;29;20184;-52
2022/03/07 07:57:59;;;;;;;24.07;15.00;;;6.20;1.00;;;;;;4892947;29;20211;-52
2022/03/07 08:00:25;;;;;;;25.13;13.80;;;7.00;1.00;;;;;;4894343;29;20190;-52
2022/03/07 08:02:50;;;;;;;23.13;13.83;;;7.60;1.00;;;;;;4895111;29;20191;-63
2022/03/07 08:05:19;;;;;;;20.43;11.83;;;8.20;1.00;;;;;;4894774;29;20184;-52
2022/03/07 08:07:46;;;;;;;15.57;11.37;;;8.90;1.00;;;;;;4893546;29;20195;-52
2022/03/07 08:10:15;;;;;;;16.10;12.10;;;9.50;1.00;;;;;;4893726;29;20427;-51
2022/03/07 08:12:41;;;;;;;16.80;10.60;;;9.90;1.00;;;;;;4874465;29;20472;-51
2022/03/07 08:15:11;;;;;;;18.63;11.83;;;9.90;1.00;;;;;;4892578;29;20428;-52
2022/03/07 08:17:46;;;;;;;20.70;12.07;;;9.90;1.00;;;;;;4894009;29;20432;-51
2022/03/07 08:20:13;;;;;;;16.10;11.40;;;10.00;1.00;;;;;;4893394;29;20913;-51
2022/03/07 08:22:39;;;;;;;17.47;11.43;;;10.30;1.00;;;;;;4890459;29;20546;-51
2022/03/07 08:25:05;;;;;;;14.73;11.00;;;10.70;1.00;;;;;;4894143;29;20515;-51
2022/03/07 08:27:32;;;;;;;15.70;11.70;;;10.80;1.00;;;;;;4895003;29;20440;-51
2022/03/07 08:29:58;;;;;;;13.70;10.67;;;10.70;1.00;;;;;;4894303;29;20451;-52
2022/03/07 08:32:24;;;;;;;15.03;10.17;;;10.70;1.00;;;;;;4887758;29;20463;-52
2022/03/07 08:34:50;;;;;;;16.80;10.20;;;11.00;1.00;;;;;;4895008;29;20204;-52
2022/03/07 08:37:15;;;;;;;11.40;9.10;;;11.20;1.00;;;;;;4893175;29;20472;-51
2022/03/07 08:39:42;;;;;;;12.90;9.90;;;11.40;1.00;;;;;;4902436;29;20229;-51
2022/03/07 08:42:08;;;;;;;13.48;9.85;;;11.70;1.00;;;;;;4893837;29;20971;-52
2022/03/07 08:44:34;;;;;;;14.33;8.40;;;11.80;1.00;;;;;;4893227;29;20250;-51
2022/03/07 08:46:59;;;;;;;12.83;9.83;;;12.00;1.00;;;;;;4881664;29;20476;-51
2022/03/07 08:49:25;;;;;;;17.37;9.40;;;12.10;1.00;;;;;;4889860;29;20444;-52
2022/03/07 08:51:50;;;;;;;10.83;8.80;;;12.10;1.00;;;;;;4892322;29;20263;-50
2022/03/07 08:54:17;;;;;;;11.07;8.47;;;12.00;1.00;;;;;;4889881;29;20642;-51
2022/03/07 08:56:44;;;;;;;16.40;9.43;;;12.10;1.00;;;;;;4901112;29;20211;-51
2022/03/07 08:59:09;;;;;;;14.17;10.03;;;12.30;1.00;;;;;;4894349;29;20515;-51
2022/03/07 09:01:36;;;;;;;11.50;8.67;;;12.60;1.00;;;;;;4899269;29;20803;-51
2022/03/07 09:04:02;;;;;;;10.13;8.43;;;12.30;1.00;;;;;;4895059;29;20417;-51
2022/03/07 09:06:29;;;;;;;12.80;9.00;;;12.20;1.00;;;;;;4898541;29;20666;-52
2022/03/07 09:08:55;;;;;;;12.07;9.27;;;12.00;1.00;;;;;;4906098;29;20431;-51
2022/03/07 09:11:20;;;;;;;12.27;8.37;;;11.90;1.00;;;;;;4892020;29;20772;-51
2022/03/07 09:13:46;;;;;;;11.67;8.03;;;11.90;1.00;;;;;;4894907;29;20195;-50
2022/03/07 09:16:14;;;;;;;15.10;9.30;;;11.80;1.00;;;;;;4900197;29;20192;-51
2022/03/07 09:18:39;;;;;;;10.73;8.50;;;12.00;1.00;;;;;;4890316;29;20207;-51
2022/03/07 09:21:05;;;;;;;11.80;7.47;;;11.90;1.00;;;;;;4894899;29;20775;-51
2022/03/07 09:23:37;;;;;;;10.07;7.90;;;11.80;1.00;;;;;;4896645;29;20192;-51
2022/03/07 09:26:06;;;;;;;9.80;7.70;;;11.60;1.00;;;;;;4897084;29;20202;-51
2022/03/07 09:28:33;;;;;;;9.97;8.13;;;11.20;1.00;;;;;;4896799;29;20526;-51
2022/03/07 09:30:59;;;;;;;11.37;8.30;;;10.60;1.00;;;;;;4897013;29;20487;-51
2022/03/07 09:33:25;;;;;;;16.63;8.70;;;10.30;1.00;;;;;;4899823;29;20483;-51
2022/03/07 09:35:52;;;;;;;14.50;8.17;;;10.10;1.00;;;;;;4895934;29;20476;-52
2022/03/07 09:38:17;;;;;;;8.67;6.70;;;10.20;1.00;;;;;;4896823;29;20212;-51
2022/03/07 09:40:43;;;;;;;9.30;6.63;;;10.10;1.00;;;;;;4875006;29;20448;-52
2022/03/07 09:43:09;;;;;;;9.50;6.37;;;9.90;1.00;;;;;;4895845;29;20638;-53
2022/03/07 09:45:35;;;;;;;9.70;7.03;;;9.80;1.00;;;;;;4878156;29;20228;-51
2022/03/07 09:48:01;;;;;;;8.00;6.03;;;9.60;1.00;;;;;;4874225;29;20181;-51
2022/03/07 09:50:27;;;;;;;10.90;6.17;;;9.50;1.00;;;;;;4875833;29;20444;-51
2022/03/07 09:52:54;;;;;;;8.77;6.10;;;9.40;1.00;;;;;;4881942;29;20199;-51
2022/03/07 09:55:20;;;;;;;10.10;6.57;;;9.70;1.00;;;;;;4881218;29;20528;-52
2022/03/07 09:57:46;;;;;;;13.17;7.10;;;9.80;1.00;;;;;;4887179;29;20913;-51
2022/03/07 10:00:13;;;;;;;5.77;5.17;;;9.60;1.00;;;;;;4882271;29;20431;-66
2022/03/07 10:02:39;;;;;;;5.97;3.80;;;9.30;1.00;;;;;;4873475;29;20489;-51
2022/03/07 10:05:05;;;;;;;4.00;3.33;;;8.90;1.00;;;;;;4877573;29;20421;-53
2022/03/07 10:07:42;;;;;;;3.07;2.77;;;8.70;1.00;;;;;;4878709;29;20409;-53
2022/03/07 10:10:09;;;;;;;3.47;2.73;;;8.60;1.00;;;;;;4877747;29;20433;-51
2022/03/07 10:12:43;;;;;;;4.23;2.90;;;8.70;1.00;;;;;;4878630;29;20517;-52
2022/03/07 10:15:16;;;;;;;3.00;2.23;;;9.00;1.00;;;;;;4877628;29;20485;-52
2022/03/07 10:17:51;;;;;;;2.30;2.10;;;9.20;1.00;;;;;;4877668;29;20429;-52
2022/03/07 10:20:19;;;;;;;6.00;2.73;;;9.50;1.00;;;;;;4876807;29;20448;-51
2022/03/07 10:22:48;;;;;;;10.23;2.80;;;9.70;1.00;;;;;;4877870;29;20501;-53
2022/03/07 10:25:15;;;;;;;2.80;2.50;;;10.10;1.00;;;;;;4877257;29;20489;-52
2022/03/07 10:27:44;;;;;;;2.73;2.00;;;9.70;1.00;;;;;;4878526;29;20521;-52
2022/03/07 10:30:20;;;;;;;3.93;2.80;;;9.70;1.00;;;;;;4877747;29;20444;-52
2022/03/07 10:32:56;;;;;;;3.57;3.17;;;9.90;1.00;;;;;;4870687;29;20476;-52
2022/03/07 10:35:28;;;;;;;3.30;2.80;;;10.10;1.00;;;;;;4878971;29;20436;-50
2022/03/07 10:38:01;;;;;;;3.20;2.77;;;10.20;1.00;;;;;;4876981;29;20439;-52
2022/03/07 10:40:27;;;;;;;2.57;2.37;;;10.20;1.00;;;;;;4876660;29;20433;-53
2022/03/07 10:42:54;;;;;;;4.40;3.10;;;10.00;1.00;;;;;;4876989;29;20467;-52
2022/03/07 10:45:20;;;;;;;4.47;2.90;;;10.40;1.00;;;;;;4877688;29;20547;-53
2022/03/07 10:47:54;;;;;;;3.87;2.63;;;10.80;1.00;;;;;;4872252;29;20467;-52
2022/03/07 10:50:25;;;;;;;4.00;3.00;;;11.30;1.00;;;;;;4875341;29;20448;-52
2022/03/07 10:52:53;;;;;;;3.80;2.40;;;12.10;1.00;;;;;;4874899;29;20462;-51
2022/03/07 10:55:26;;;;;;;3.50;2.33;;;13.20;1.00;;;;;;4877122;29;20433;-52
2022/03/07 10:57:53;;;;;;;4.00;2.20;;;13.70;1.00;;;;;;4877615;29;20433;-52
2022/03/07 11:00:20;;;;;;;1.70;1.40;;;14.30;1.00;;;;;;4877476;29;20437;-54
2022/03/07 11:02:47;;;;;;;4.27;2.63;;;15.00;99.90;;;;;;4880312;29;20433;-53
2022/03/07 11:05:15;;;;;;;3.10;2.30;;;15.70;99.90;;;;;;4863070;29;20462;-53
2022/03/07 11:07:43;;;;;;;3.53;2.10;;;16.30;1.00;;;;;;4881033;29;20436;-52
2022/03/07 11:10:10;;;;;;;3.83;1.80;;;17.00;99.90;;;;;;4876550;29;20436;-53
2022/03/07 11:12:36;;;;;;;2.30;1.97;;;17.40;99.90;;;;;;4877467;29;20448;-52
2022/03/07 11:15:08;;;;;;;2.83;1.70;;;17.70;99.90;;;;;;4876337;29;20934;-52
2022/03/07 11:17:42;;;;;;;2.60;1.87;;;17.60;99.90;;;;;;4876911;29;20429;-52
2022/03/07 11:20:11;;;;;;;3.43;2.10;;;17.80;99.90;;;;;;4873808;29;20521;-52
2022/03/07 11:22:37;;;;;;;2.73;2.10;;;18.40;99.90;;;;;;4877057;29;20444;-53
2022/03/07 11:25:06;;;;;;;5.33;2.33;;;18.50;99.90;;;;;;4876267;29;20790;-52
2022/03/07 11:27:32;;;;;;;2.40;2.03;;;18.60;99.90;;;;;;4880722;29;20267;-56
2022/03/07 11:29:59;;;;;;;2.50;1.90;;;18.80;99.90;;;;;;4876430;29;20451;-52
2022/03/07 11:32:25;;;;;;;5.00;1.90;;;19.20;99.90;;;;;;4875874;29;20471;-52
2022/03/07 11:34:54;;;;;;;1.73;1.63;;;19.50;99.90;;;;;;4876067;29;20469;-52
2022/03/07 11:37:21;;;;;;;2.37;1.67;;;19.70;99.90;;;;;;4876845;29;20187;-51
2022/03/07 11:39:47;;;;;;;5.10;2.33;;;19.80;99.90;;;;;;4876232;29;20477;-52
2022/03/07 11:42:18;;;;;;;4.10;1.73;;;20.00;99.90;;;;;;4876444;29;20908;-52
2022/03/07 11:44:46;;;;;;;2.73;1.77;;;20.00;99.90;;;;;;4888033;29;20254;-53
2022/03/07 11:47:20;;;;;;;2.30;1.90;;;19.80;99.90;;;;;;4900615;29;20475;-52
2022/03/07 11:49:57;;;;;;;1.90;1.33;;;19.70;99.90;;;;;;4893116;29;20416;-52
2022/03/07 11:52:23;;;;;;;1.83;1.63;;;20.00;99.90;;;;;;4893574;29;20787;-52
2022/03/07 11:54:56;;;;;;;1.63;1.53;;;20.30;99.90;;;;;;4894359;29;20444;-53
2022/03/07 11:57:38;;;;;;;1.43;1.33;;;20.30;99.90;;;;;;4894018;29;20184;-53
2022/03/07 12:00:16;;;;;;;1.57;1.47;;;19.60;99.90;;;;;;4892497;29;20467;-52
2022/03/07 12:02:45;;;;;;;3.70;1.10;;;19.50;99.90;;;;;;4893196;29;20438;-53
2022/03/07 12:05:32;;;;;;;4.43;1.63;;;19.40;99.90;;;;;;4894268;29;20420;-52
2022/03/07 12:08:11;;;;;;;2.30;1.80;;;19.60;99.90;;;;;;4892077;29;20431;-53
2022/03/07 12:10:39;;;;;;;1.73;1.63;;;19.20;99.90;;;;;;4892794;29;20753;-53
2022/03/07 12:13:07;;;;;;;2.30;2.07;;;19.00;99.90;;;;;;4897011;29;20840;-53
2022/03/07 12:15:46;;;;;;;1.77;1.67;;;19.50;99.90;;;;;;4899777;29;20994;-52
2022/03/07 12:18:12;;;;;;;3.30;2.13;;;19.60;99.90;;;;;;4893979;29;20870;-52
2022/03/07 12:20:55;;;;;;;3.87;2.20;;;19.90;99.90;;;;;;4893386;29;20925;-52
2022/03/07 12:23:24;;;;;;;2.27;2.07;;;20.00;99.90;;;;;;4894534;29;20443;-53
2022/03/07 12:26:05;;;;;;;10.20;4.93;;;20.00;99.90;;;;;;4894424;29;20436;-53
2022/03/07 12:28:33;;;;;;;4.00;2.43;;;19.90;99.90;;;;;;4893493;29;20443;-53
2022/03/07 12:30:59;;;;;;;2.00;1.80;;;20.10;99.90;;;;;;4893862;29;20452;-53
2022/03/07 12:33:25;;;;;;;1.80;1.70;;;20.30;99.90;;;;;;4894593;29;20432;-53
2022/03/07 12:36:00;;;;;;;3.30;1.70;;;20.10;99.90;;;;;;4893760;29;20440;-52
2022/03/07 12:38:26;;;;;;;3.40;1.90;;;20.00;99.90;;;;;;4890069;29;20217;-52
2022/03/07 12:40:51;;;;;;;2.80;1.70;;;19.50;99.90;;;;;;4894694;29;20910;-52